Latest Weather Observations for Gabo Island

IDN60801

Issued at 1:23 pm EDT Thursday 20 January 2022 (issued every 10 minutes, with the page automatically refreshed every 10 minutes)

About weather observations | Map of weather stations | Latest weather observations for NSW | Other Formats
Station Details ID: 084016 Name: GABO ISLAND LIGHTHOUSE Lat: -37.57 Lon: 149.92 Height: 15.0 m
Data from the previous 72 hours. | See also: Recent months at Gabo Island
Date/Time
EDT
Temp
°C
App
Temp
°C
Dew
Point
°C
Rel
Hum
%
Delta-T
°C
Wind Press
QNH
hPa
Press
MSL
hPa
Rain since
9am
mm
Dir  Spd
km/h
Gust
km/h
Spd
kts
Gust
kts
20/01:00pm 20.2 17.8 12.7 62 4.2 ESE 17 20 9 11 1032.0 1032.0 0.0
20/12:30pm 19.0 16.6 12.5 66 3.6 E 17 20 9 11 1032.0 1032.0 0.0
20/12:00pm 19.3 16.9 12.6 65 3.7 ESE 17 22 9 12 1032.1 1032.1 0.0
20/11:30am 19.8 17.4 12.8 64 4.0 SE 17 20 9 11 1032.0 1032.0 0.0
20/11:00am 19.6 17.1 12.4 63 4.0 SE 17 24 9 13 1032.0 1032.0 0.0
20/10:30am 19.5 17.4 12.5 64 3.9 SE 15 20 8 11 1031.9 1031.9 0.0
20/10:00am 19.1 16.8 11.7 62 4.0 SE 15 20 8 11 1031.8 1031.8 0.0
20/09:30am 18.9 16.1 11.5 62 4.1 SE 17 20 9 11 1031.6 1031.6 0.0
20/09:00am 19.6 16.8 11.4 59 4.5 SE 17 24 9 13 1031.4 1031.4 0.0
20/08:30am 19.1 15.9 11.9 63 4.0 ESE 20 28 11 15 1031.3 1031.3 0.0
20/08:00am 18.4 15.1 11.7 65 3.7 ESE 20 28 11 15 1030.9 1030.9 0.0
20/07:30am 18.8 16.5 11.6 63 4.0 SE 15 22 8 12 1030.7 1030.7 0.0
20/07:00am 18.2 15.4 11.5 65 3.6 ESE 17 22 9 12 1030.5 1030.5 0.0
20/06:30am 17.8 15.3 12.3 70 3.0 SE 17 22 9 12 1030.3 1030.3 0.0
20/06:00am 17.5 14.8 11.8 69 3.1 SE 17 22 9 12 1030.2 1030.2 0.0
20/05:30am 17.6 14.6 11.9 69 3.1 ESE 19 28 10 15 1029.8 1029.8 0.0
20/05:00am 18.0 15.2 11.3 65 3.6 SE 17 24 9 13 1029.8 1029.8 0.0
20/04:30am 18.0 15.0 11.8 67 3.4 SE 19 24 10 13 1029.3 1029.3 0.0
20/04:00am 18.0 15.4 12.0 68 3.3 SE 17 20 9 11 1029.3 1029.3 0.0
20/03:30am 18.0 15.8 12.0 68 3.3 SE 15 19 8 10 1029.1 1029.1 0.0
20/03:00am 18.2 15.3 11.0 63 3.9 SE 17 24 9 13 1029.4 1029.4 0.0
20/02:30am 18.3 15.8 11.1 63 3.9 SE 15 22 8 12 1029.7 1029.7 0.0
20/02:00am 18.5 14.6 10.8 61 4.1 SE 22 30 12 16 1029.7 1029.7 0.0
20/01:30am 18.5 15.4 11.6 64 3.8 SE 19 26 10 14 1029.9 1029.9 0.0
20/01:00am 18.5 14.6 12.0 66 3.6 SE 24 30 13 16 1030.0 1030.0 0.0
20/12:30am 18.5 14.6 12.0 66 3.6 SE 24 32 13 17 1029.8 1029.8 0.0
20/12:00am 18.6 15.7 12.8 69 3.2 SE 20 30 11 16 1029.8 1029.8 0.0
 
Date/Time
EDT
Temp
°C
App
Temp
°C
Dew
Point
°C
Rel
Hum
%
Delta-T
°C
Wind Press
QNH
hPa
Press
MSL
hPa
Rain since
9am
mm
Dir  Spd
km/h
Gust
km/h
Spd
kts
Gust
kts
19/11:30pm 18.5 16.5 12.7 69 3.2 SE 15 20 8 11 1029.6 1029.6 0.0
19/11:00pm 18.3 15.1 13.0 71 3.0 SE 22 32 12 17 1029.6 1029.6 0.0
19/10:30pm 18.4 14.8 13.1 71 3.0 SE 24 32 13 17 1029.4 1029.4 0.0
19/10:00pm 18.6 15.5 13.5 72 2.9 SE 22 32 12 17 1029.3 1029.3 0.0
19/09:30pm 18.6 15.1 13.5 72 2.9 SE 24 33 13 18 1028.9 1028.9 0.0
19/09:00pm 18.6 16.0 13.7 73 2.8 SE 20 28 11 15 1028.6 1028.6 0.0
19/08:30pm 18.6 15.3 14.1 75 2.6 SE 24 32 13 17 1028.2 1028.2 0.0
19/08:00pm 18.9 15.7 14.2 74 2.7 SE 24 33 13 18 1027.8 1027.8 0.0
19/07:30pm 19.3 16.4 14.1 72 3.0 SE 22 32 12 17 1027.7 1027.7 0.0
19/07:00pm 19.6 16.4 14.2 71 3.1 SSE 24 32 13 17 1027.4 1027.4 0.0
19/06:30pm 19.4 15.4 13.1 67 3.6 SSE 26 33 14 18 1027.1 1027.1 0.0
19/06:00pm 19.7 16.8 13.9 69 3.3 SE 22 32 12 17 1026.9 1026.9 0.0
19/05:30pm 19.9 16.0 14.3 70 3.2 SSE 28 33 15 18 1026.9 1026.9 0.0
19/05:00pm 19.7 16.0 13.9 69 3.3 SSE 26 33 14 18 1026.7 1026.7 0.0
19/04:30pm 19.6 14.9 13.3 67 3.6 SSE 30 37 16 20 1026.6 1026.6 0.0
19/04:00pm 20.2 16.0 13.6 66 3.8 SSE 28 35 15 19 1026.5 1026.5 0.0
19/03:30pm 20.9 17.2 13.8 64 4.1 SSE 26 35 14 19 1026.5 1026.5 0.0
19/03:00pm 21.6 18.7 15.0 66 3.9 SSE 24 30 13 16 1026.3 1026.3 0.0
19/02:30pm 20.3 16.3 14.0 67 3.6 SSE 28 33 15 18 1026.2 1026.2 0.0
19/02:00pm 20.8 16.8 14.0 65 3.9 S 28 33 15 18 1026.0 1026.0 0.0
19/01:30pm 19.8 16.1 14.0 69 3.3 S 26 30 14 16 1026.0 1026.0 0.0
19/01:00pm 19.8 16.1 14.0 69 3.3 S 26 32 14 17 1025.7 1025.7 0.0
19/12:30pm 20.3 16.7 13.0 63 4.1 SSE 24 33 13 18 1025.8 1025.8 0.0
19/12:00pm 20.1 16.0 13.8 67 3.6 SSE 28 35 15 19 1025.6 1025.6 0.0
19/11:30am 20.6 17.2 13.6 64 4.0 S 24 30 13 16 1025.4 1025.4 0.0
19/11:00am 20.2 15.9 13.2 64 4.0 S 28 37 15 20 1025.2 1025.2 0.0
19/10:30am 19.6 15.4 13.5 68 3.5 S 28 37 15 20 1025.0 1025.0 0.0
19/10:00am 19.7 15.5 13.4 67 3.6 S 28 35 15 19 1024.8 1024.8 0.0
19/09:30am 19.6 16.0 14.2 71 3.1 SSE 26 33 14 18 1024.5 1024.5 0.0
19/09:00am 19.1 15.7 13.7 71 3.1 SSE 24 32 13 17 1024.3 1024.3 3.0
19/08:30am 19.0 15.1 14.3 74 2.7 SSE 28 33 15 18 1023.9 1023.9 3.0
19/08:00am 18.6 13.8 14.1 75 2.6 SSE 32 37 17 20 1023.2 1023.2 3.0
19/07:30am 18.4 13.6 14.1 76 2.5 SSE 32 39 17 21 1022.5 1022.5 3.0
19/07:00am 18.4 13.8 14.7 79 2.1 SSE 32 41 17 22 1022.0 1022.0 3.0
19/06:30am 18.4 13.7 14.9 80 2.0 SSE 33 39 18 21 1021.4 1021.4 3.0
19/06:00am 18.5 14.5 15.2 81 1.9 SSE 30 41 16 22 1021.0 1021.0 3.0
19/05:30am 18.2 14.2 15.1 82 1.8 SSE 30 39 16 21 1020.5 1020.5 3.0
19/05:00am 17.5 17.1 16.2 92 0.8 S 13 22 7 12 1020.4 1020.4 3.0
19/04:30am 15.5 13.2 14.0 91 0.8 WNW 19 24 10 13 1019.9 1019.9 1.2
19/04:00am 15.6 13.1 14.0 90 0.9 WNW 20 26 11 14 1019.5 1019.5 1.0
19/03:30am 15.7 13.0 13.5 87 1.2 W 20 26 11 14 1019.3 1019.3 0.2
19/03:00am 15.7 12.6 13.5 87 1.2 W 22 28 12 15 1019.3 1019.3 0.2
19/02:30am 16.5 14.4 13.6 83 1.6 W 17 22 9 12 1019.3 1019.3 0.0
19/02:00am 16.4 13.3 13.3 82 1.7 W 22 28 12 15 1019.3 1019.3 0.0
19/01:30am 16.6 13.4 13.1 80 2.0 W 22 26 12 14 1019.3 1019.3 0.0
19/01:00am 16.7 13.1 13.2 80 2.0 W 24 28 13 15 1019.3 1019.3 0.0
19/12:30am 16.8 13.7 13.5 81 1.9 W 22 28 12 15 1019.2 1019.2 0.0
19/12:00am 16.6 13.1 13.3 81 1.8 W 24 28 13 15 1018.8 1018.8 0.0
 
Date/Time
EDT
Temp
°C
App
Temp
°C
Dew
Point
°C
Rel
Hum
%
Delta-T
°C
Wind Press
QNH
hPa
Press
MSL
hPa
Rain since
9am
mm
Dir  Spd
km/h
Gust
km/h
Spd
kts
Gust
kts
18/11:30pm 16.9 13.3 13.2 79 2.1 W 24 30 13 16 1018.8 1018.8 0.0
18/11:00pm 16.8 13.2 13.1 79 2.1 W 24 30 13 16 1018.7 1018.7 0.0
18/10:30pm 17.1 13.9 13.0 77 2.3 W 22 28 12 15 1018.4 1018.4 0.0
18/10:00pm 17.5 14.0 13.4 77 2.3 WSW 24 30 13 16 1018.5 1018.5 0.0
18/09:30pm 17.7 14.3 13.6 77 2.3 WSW 24 28 13 15 1018.1 1018.1 0.0
18/09:00pm 17.8 14.2 13.1 74 2.6 WSW 24 32 13 17 1017.6 1017.6 0.0
18/08:30pm 18.2 15.1 13.3 73 2.8 WSW 22 28 12 15 1017.3 1017.3 0.0
18/08:00pm 18.2 14.3 13.3 73 2.8 WSW 26 32 14 17 1016.8 1016.8 0.0
18/07:30pm 18.5 14.0 13.8 74 2.7 SW 30 35 16 19 1016.4 1016.4 0.0
18/07:00pm 18.5 13.8 14.2 76 2.5 SW 32 35 17 19 1015.7 1015.7 0.0
18/06:30pm 18.6 13.6 14.1 75 2.6 SW 33 39 18 21 1015.8 1015.8 0.0
18/06:00pm 18.7 13.7 14.0 74 2.7 SW 33 39 18 21 1015.3 1015.3 0.0
18/05:30pm 18.7 14.1 14.6 77 2.4 SW 32 39 17 21 1015.5 1015.5 0.0
18/05:00pm 18.6 13.3 14.3 76 2.5 SW 35 43 19 23 1015.6 1015.6 0.0
18/04:30pm 18.8 13.6 14.5 76 2.5 SW 35 43 19 23 1015.6 1015.6 0.0
18/04:00pm 18.7 13.1 14.4 76 2.5 SW 37 44 20 24 1015.4 1015.4 0.0
18/03:30pm 18.7 13.2 13.6 72 2.9 SW 35 43 19 23 1015.4 1015.4 0.0
18/03:00pm 19.0 13.3 14.1 73 2.8 SW 37 43 20 23 1015.4 1015.4 0.0
18/02:30pm 19.0 13.5 13.6 71 3.1 SW 35 41 19 22 1015.5 1015.5 0.0
18/02:00pm 19.1 13.7 13.9 72 3.0 SW 35 41 19 22 1015.7 1015.7 0.0
18/01:30pm 19.0 13.4 13.2 69 3.3 SW 35 43 19 23 1015.8 1015.8 0.0
18/01:00pm 19.0 13.5 13.6 71 3.1 SW 35 43 19 23 1015.9 1015.9 0.0
18/12:30pm 19.1 13.3 13.9 72 3.0 SW 37 43 20 23 1015.9 1015.9 0.0
18/12:00pm 19.1 13.2 13.7 71 3.1 SW 37 43 20 23 1015.8 1015.8 0.0
18/11:30am 19.7 14.2 14.7 73 2.9 SW 37 44 20 24 1015.7 1015.7 0.0
18/11:00am 19.5 13.9 14.5 73 2.9 SW 37 43 20 23 1015.8 1015.8 0.0
18/10:30am 19.1 14.1 14.1 73 2.9 SW 33 39 18 21 1015.6 1015.6 0.0
18/10:00am 18.7 13.5 14.4 76 2.5 WSW 35 43 19 23 1015.5 1015.5 0.0
18/09:30am 18.1 13.8 14.4 79 2.1 SW 30 35 16 19 1015.5 1015.5 0.0
18/09:00am 17.5 13.7 14.6 83 1.7 WSW 28 35 15 19 1015.4 1015.4 0.0
18/08:30am 17.6 13.5 14.9 84 1.6 WSW 30 37 16 20 1015.2 1015.2 0.0
18/08:00am 17.4 12.9 14.9 85 1.4 SW 32 37 17 20 1014.8 1014.8 0.0
18/07:30am 17.0 12.0 15.0 88 1.2 SW 35 43 19 23 1014.5 1014.5 0.0
18/07:00am 17.7 13.9 14.8 83 1.7 WSW 28 33 15 18 1014.2 1014.2 0.0
18/06:30am 17.6 13.9 14.9 84 1.6 WSW 28 35 15 19 1013.8 1013.8 0.0
18/06:00am 17.6 13.4 14.7 83 1.7 WSW 30 35 16 19 1013.7 1013.7 0.0
18/05:30am 17.7 14.4 15.0 84 1.6 WSW 26 32 14 17 1013.5 1013.5 0.0
18/05:00am 17.8 14.6 15.4 86 1.4 WSW 26 32 14 17 1013.2 1013.2 0.0
18/04:30am 17.8 13.2 15.2 85 1.5 WSW 33 41 18 22 1013.1 1013.1 0.0
18/04:00am 17.8 14.9 15.2 85 1.5 WSW 24 30 13 16 1013.1 1013.1 0.0
18/03:30am 17.8 15.8 15.4 86 1.4 WSW 20 24 11 13 1013.1 1013.1 0.0
18/03:00am 17.9 15.9 15.5 86 1.4 WSW 20 28 11 15 1013.2 1013.2 0.0
18/02:30am 17.8 15.3 15.1 84 1.6 WSW 22 28 12 15 1013.1 1013.1 0.0
18/02:00am 17.7 15.1 15.0 84 1.6 W 22 28 12 15 1013.3 1013.3 0.0
18/01:30am 17.6 15.0 14.9 84 1.6 W 22 26 12 14 1013.2 1013.2 0.0
18/01:00am 17.5 14.5 14.8 84 1.6 W 24 28 13 15 1013.1 1013.1 0.0
18/12:30am 17.6 14.1 14.5 82 1.8 W 26 30 14 16 1013.1 1013.1 0.0
18/12:00am 17.7 14.6 14.6 82 1.8 W 24 32 13 17 1013.1 1013.1 0.0
 
Date/Time
EDT
Temp
°C
App
Temp
°C
Dew
Point
°C
Rel
Hum
%
Delta-T
°C
Wind Press
QNH
hPa
Press
MSL
hPa
Rain since
9am
mm
Dir  Spd
km/h
Gust
km/h
Spd
kts
Gust
kts
17/11:30pm 17.8 14.0 14.7 82 1.8 W 28 35 15 19 1013.0 1013.0 0.0
17/11:00pm 17.8 14.5 14.9 83 1.7 W 26 32 14 17 1012.8 1012.8 0.0
17/10:30pm 17.9 15.0 15.2 84 1.6 W 24 28 13 15 1012.8 1012.8 0.0
17/10:00pm 18.0 15.2 15.3 84 1.6 W 24 30 13 16 1012.7 1012.7 0.0
17/09:30pm 18.2 15.5 15.6 85 1.5 W 24 30 13 16 1012.4 1012.4 0.0
17/09:00pm 18.1 15.4 15.7 86 1.4 W 24 30 13 16 1012.1 1012.1 0.0
17/08:30pm 18.0 15.7 15.8 87 1.3 W 22 28 12 15 1012.1 1012.1 0.0
17/08:00pm 18.0 15.9 16.3 90 1.0 W 22 26 12 14 1011.7 1011.7 0.0
17/07:30pm 18.1 16.7 16.6 91 0.9 WSW 19 24 10 13 1011.3 1011.3 0.0
17/07:00pm 18.0 14.9 16.5 91 0.9 WSW 28 35 15 19 1010.9 1010.9 0.0
17/06:30pm 18.2 15.5 16.5 90 1.0 WSW 26 35 14 19 1010.8 1010.8 0.0
17/06:00pm 18.6 14.7 16.9 90 1.0 WSW 33 43 18 23 1010.3 1010.3 0.0
17/05:30pm 18.8 14.8 16.6 87 1.3 WSW 33 44 18 24 1010.2 1010.2 0.0
17/05:00pm 18.7 14.4 16.9 89 1.1 WSW 35 44 19 24 1009.9 1009.9 0.0
17/04:30pm 18.9 14.0 17.2 90 1.0 SW 39 46 21 25 1009.4 1009.4 0.0
17/04:00pm 19.1 13.7 17.1 88 1.2 SW 41 48 22 26 1009.2 1009.2 0.0
17/03:30pm 19.4 13.5 17.2 87 1.3 SW 44 50 24 27 1009.0 1009.0 0.0
17/03:00pm 19.3 13.1 17.3 88 1.2 SW 46 54 25 29 1009.0 1009.0 0.0
17/02:30pm 20.0 15.1 17.4 85 1.6 SW 39 48 21 26 1008.9 1008.9 0.0
17/02:00pm 20.9 18.8 18.1 84 1.7 SSW 26 33 14 18 1009.0 1009.0 0.0
17/01:30pm 22.9 21.4 17.8 73 3.2 SSW 22 28 12 15 1008.8 1008.8 0.0

Other formats

Comma delimited format used in spreadsheet applications
http://www.bom.gov.au/fwo/IDN60801/IDN60801.94933.axf

JavaScript Object Notation format (JSON) in row-major order
http://www.bom.gov.au/fwo/IDN60801/IDN60801.94933.json

Data quality

Most of these data are generated automatically and are frequently updated. Quality checks on data are not normally performed. It is possible for incorrect values to appear. Refer to information at About Latest Weather Observations and please check the disclaimer before using these data.